createdAt,value
2023-04-28T00:00:45.864Z,46.14
2023-04-28T00:01:45.932Z,45.81
2023-04-28T00:02:46.054Z,45.76
2023-04-28T00:03:46.125Z,45.92
2023-04-28T00:04:46.238Z,45.96
2023-04-28T00:05:46.215Z,45.99
2023-04-28T00:06:46.205Z,45.91
2023-04-28T00:07:46.298Z,45.97
2023-04-28T00:08:46.360Z,46.00
2023-04-28T00:09:46.415Z,46.08
2023-04-28T00:10:46.478Z,45.90
2023-04-28T00:11:46.548Z,46.05
2023-04-28T00:12:46.556Z,45.81
2023-04-28T00:13:46.624Z,45.93
2023-04-28T00:14:46.678Z,46.07
2023-04-28T00:15:46.725Z,46.07
2023-04-28T00:16:46.894Z,46.15
2023-04-28T00:17:46.894Z,46.14
2023-04-28T00:18:46.852Z,46.19
2023-04-28T00:19:46.913Z,46.19
2023-04-28T00:20:46.959Z,46.27
2023-04-28T00:21:46.970Z,46.25
2023-04-28T00:22:47.029Z,46.24
2023-04-28T00:23:47.077Z,46.35
2023-04-28T00:24:47.132Z,46.16
2023-04-28T00:25:47.212Z,45.77
2023-04-28T00:26:47.240Z,45.90
2023-04-28T00:27:47.270Z,45.96
2023-04-28T00:28:47.330Z,46.08
2023-04-28T00:29:47.370Z,46.04
2023-04-28T00:30:47.426Z,45.99
2023-04-28T00:31:47.511Z,46.14
2023-04-28T00:32:47.552Z,46.26
2023-04-28T00:33:47.581Z,46.51
2023-04-28T00:34:47.598Z,46.31
2023-04-28T00:35:47.639Z,46.32
2023-04-28T00:36:47.677Z,46.44
2023-04-28T00:37:47.704Z,46.35
2023-04-28T00:38:47.750Z,46.41
2023-04-28T00:39:47.821Z,46.54
2023-04-28T00:40:47.881Z,46.71
2023-04-28T00:41:47.911Z,46.71
2023-04-28T00:42:47.963Z,46.73
2023-04-28T00:43:48.098Z,46.84
2023-04-28T00:44:48.082Z,46.92
2023-04-28T00:45:48.173Z,46.79
2023-04-28T00:46:48.169Z,46.84
2023-04-28T00:47:48.243Z,46.90
2023-04-28T00:48:48.267Z,46.91
2023-04-28T00:49:48.328Z,46.91
2023-04-28T00:50:48.387Z,46.84
2023-04-28T00:51:48.412Z,46.77
2023-04-28T00:52:48.444Z,46.95
2023-04-28T00:53:48.501Z,47.10
2023-04-28T00:54:48.531Z,47.12
2023-04-28T00:55:48.591Z,46.99
2023-04-28T00:56:48.647Z,47.05
2023-04-28T00:57:48.696Z,47.00
2023-04-28T00:58:48.712Z,47.20
2023-04-28T00:59:48.772Z,47.05
2023-04-28T01:00:48.862Z,47.21
2023-04-28T01:01:48.910Z,47.34
2023-04-28T01:02:49.076Z,47.36
2023-04-28T01:03:49.313Z,47.62
2023-04-28T01:04:49.065Z,47.72
2023-04-28T01:05:49.128Z,47.79
2023-04-28T01:06:49.158Z,47.73
2023-04-28T01:07:49.223Z,47.71
2023-04-28T01:08:49.269Z,47.60
2023-04-28T01:09:49.319Z,47.57
2023-04-28T01:10:49.390Z,47.80
2023-04-28T01:11:49.412Z,47.77
2023-04-28T01:12:49.477Z,47.75
2023-04-28T01:13:49.507Z,47.65
2023-04-28T01:14:49.549Z,47.72
2023-04-28T01:15:49.596Z,47.72
2023-04-28T01:16:49.714Z,47.93
2023-04-28T01:17:49.698Z,47.75
2023-04-28T01:18:49.698Z,47.62
2023-04-28T01:19:49.811Z,47.71
2023-04-28T01:20:49.814Z,47.66
2023-04-28T01:21:49.862Z,47.81
2023-04-28T01:22:49.916Z,47.79
2023-04-28T01:23:49.985Z,47.72
2023-04-28T01:24:50.033Z,47.79
2023-04-28T01:25:50.096Z,47.39
2023-04-28T01:26:50.152Z,47.22
2023-04-28T01:27:50.198Z,47.39
2023-04-28T01:28:50.265Z,47.54
2023-04-28T01:29:50.352Z,47.51
2023-04-28T01:30:50.380Z,47.54
2023-04-28T01:31:50.451Z,47.49
2023-04-28T01:32:50.621Z,47.23
2023-04-28T01:33:50.562Z,47.46
2023-04-28T01:34:50.610Z,47.30
2023-04-28T01:35:50.681Z,47.34
2023-04-28T01:36:50.737Z,47.27
2023-04-28T01:37:50.802Z,47.25
2023-04-28T01:38:50.868Z,47.18
2023-04-28T01:39:50.916Z,47.18
2023-04-28T01:40:50.964Z,47.45
2023-04-28T01:41:51.035Z,47.80
2023-04-28T01:42:51.063Z,48.02
2023-04-28T01:43:51.126Z,48.37
2023-04-28T01:44:51.180Z,48.54
2023-04-28T01:45:51.246Z,48.62
2023-04-28T01:46:51.272Z,48.52
2023-04-28T01:47:51.344Z,48.41
2023-04-28T01:48:51.347Z,48.34
2023-04-28T01:49:51.421Z,48.36
2023-04-28T01:50:51.463Z,48.29
2023-04-28T01:51:51.499Z,48.38
2023-04-28T01:52:51.537Z,48.41
2023-04-28T01:53:51.608Z,48.44
2023-04-28T01:54:51.657Z,48.51
2023-04-28T01:55:51.708Z,48.72
2023-04-28T01:56:51.755Z,48.83
2023-04-28T01:57:51.808Z,49.00
2023-04-28T01:58:51.867Z,48.69
2023-04-28T01:59:51.918Z,49.08
2023-04-28T02:00:51.975Z,48.84
2023-04-28T02:01:52.063Z,48.78
2023-04-28T02:02:52.156Z,48.56
2023-04-28T02:03:52.202Z,48.37
2023-04-28T02:04:52.371Z,48.52
2023-04-28T02:05:52.237Z,48.12
2023-04-28T02:06:52.291Z,47.88
2023-04-28T02:07:52.308Z,47.61
2023-04-28T02:08:52.349Z,47.60
2023-04-28T02:09:52.415Z,47.60
2023-04-28T02:10:52.459Z,47.81
2023-04-28T02:11:52.507Z,47.90
2023-04-28T02:12:52.563Z,47.74
2023-04-28T02:13:52.617Z,47.75
2023-04-28T02:14:52.684Z,47.82
2023-04-28T02:15:52.744Z,47.79
2023-04-28T02:16:52.812Z,48.06
2023-04-28T02:17:52.928Z,48.28
2023-04-28T02:18:52.912Z,48.41
2023-04-28T02:19:52.945Z,48.35
2023-04-28T02:20:52.977Z,48.37
2023-04-28T02:21:53.047Z,48.45
2023-04-28T02:22:53.082Z,48.62
2023-04-28T02:23:53.150Z,48.74
2023-04-28T02:24:53.187Z,48.84
2023-04-28T02:25:53.255Z,48.58
2023-04-28T02:26:53.342Z,48.50
2023-04-28T02:27:53.378Z,48.37
2023-04-28T02:28:53.434Z,48.55
2023-04-28T02:29:53.496Z,48.63
2023-04-28T02:30:53.542Z,48.52
2023-04-28T02:31:53.709Z,48.76
2023-04-28T02:32:53.673Z,48.83
2023-04-28T02:33:53.692Z,48.98
2023-04-28T02:34:53.767Z,48.84
2023-04-28T02:35:53.814Z,49.00
2023-04-28T02:36:53.864Z,49.03
2023-04-28T02:37:53.911Z,49.14
2023-04-28T02:38:53.969Z,49.21
2023-04-28T02:39:54.019Z,49.13
2023-04-28T02:40:54.054Z,48.98
2023-04-28T02:41:54.171Z,48.86
2023-04-28T02:42:54.202Z,48.87
2023-04-28T02:43:54.226Z,48.88
2023-04-28T02:44:54.281Z,49.11
2023-04-28T02:45:54.333Z,48.98
2023-04-28T02:46:54.515Z,49.16
2023-04-28T02:47:54.571Z,49.03
2023-04-28T02:48:54.465Z,48.98
2023-04-28T02:49:54.509Z,48.93
2023-04-28T02:50:54.571Z,48.88
2023-04-28T02:51:54.646Z,48.91
2023-04-28T02:52:54.689Z,48.85
2023-04-28T02:53:54.715Z,48.81
2023-04-28T02:54:54.725Z,48.78
2023-04-28T02:55:54.750Z,48.87
2023-04-28T02:56:54.809Z,48.91
2023-04-28T02:57:54.816Z,48.86
2023-04-28T02:58:54.871Z,48.92
2023-04-28T02:59:54.882Z,48.90
2023-04-28T03:00:54.938Z,48.90
2023-04-28T03:01:54.962Z,48.82
2023-04-28T03:02:55.236Z,48.82
2023-04-28T03:03:55.254Z,49.00
2023-04-28T03:04:55.121Z,48.94
2023-04-28T03:05:55.186Z,48.90
2023-04-28T03:06:55.213Z,48.87
2023-04-28T03:07:55.255Z,48.97
2023-04-28T03:08:55.319Z,49.03
2023-04-28T03:09:55.377Z,49.01
2023-04-28T03:10:55.447Z,48.83
2023-04-28T03:11:55.487Z,48.96
2023-04-28T03:12:55.543Z,49.01
2023-04-28T03:13:55.587Z,49.03
2023-04-28T03:14:55.635Z,48.99
2023-04-28T03:15:55.750Z,48.98
2023-04-28T03:16:55.902Z,48.95
2023-04-28T03:17:55.867Z,48.99
2023-04-28T03:18:55.876Z,49.10
2023-04-28T03:19:55.930Z,49.06
2023-04-28T03:20:55.998Z,48.94
2023-04-28T03:21:56.063Z,49.12
2023-04-28T03:22:56.055Z,48.91
2023-04-28T03:23:56.107Z,48.91
2023-04-28T03:24:56.124Z,48.89
2023-04-28T03:25:56.190Z,49.01
2023-04-28T03:26:56.228Z,48.87
2023-04-28T03:27:56.258Z,48.84
2023-04-28T03:28:56.274Z,48.86
2023-04-28T03:29:56.274Z,48.77
2023-04-28T03:30:56.315Z,48.88
2023-04-28T03:31:56.316Z,49.18
2023-04-28T03:32:56.356Z,49.20
2023-04-28T03:33:56.335Z,48.96
2023-04-28T03:34:56.320Z,49.08
2023-04-28T03:35:56.366Z,49.00
2023-04-28T03:36:56.358Z,49.01
2023-04-28T03:37:56.353Z,49.05
2023-04-28T03:38:56.337Z,48.96
2023-04-28T03:39:56.329Z,48.97
2023-04-28T03:40:56.365Z,49.11
2023-04-28T03:41:56.378Z,49.21
2023-04-28T03:42:56.364Z,49.40
2023-04-28T03:43:56.365Z,49.25
2023-04-28T03:44:56.364Z,49.28
2023-04-28T03:45:56.422Z,49.34
2023-04-28T03:46:56.364Z,49.45
2023-04-28T03:47:56.494Z,49.50
2023-04-28T03:48:56.373Z,49.55
2023-04-28T03:49:56.371Z,49.55
2023-04-28T03:50:56.390Z,49.57
2023-04-28T03:51:56.420Z,49.71
2023-04-28T03:52:56.385Z,50.07
2023-04-28T03:53:56.398Z,50.11
2023-04-28T03:54:56.399Z,49.89
2023-04-28T03:55:56.412Z,49.69
2023-04-28T03:56:56.414Z,49.83
2023-04-28T03:57:56.412Z,50.04
2023-04-28T03:58:56.414Z,50.14
2023-04-28T03:59:56.412Z,49.94
2023-04-28T04:00:56.429Z,49.98
2023-04-28T04:01:56.415Z,50.03
2023-04-28T04:02:56.536Z,50.01
2023-04-28T04:03:56.676Z,49.87
2023-04-28T04:04:56.653Z,49.70
2023-04-28T04:05:56.441Z,49.80
2023-04-28T04:06:56.456Z,49.69
2023-04-28T04:07:56.485Z,49.59
2023-04-28T04:08:56.544Z,49.65
2023-04-28T04:09:56.530Z,49.46
2023-04-28T04:10:56.594Z,49.48
2023-04-28T04:11:56.644Z,49.53
2023-04-28T04:12:56.706Z,49.46
2023-04-28T04:13:56.744Z,49.27
2023-04-28T04:14:56.766Z,49.67
2023-04-28T04:15:56.818Z,49.78
2023-04-28T04:16:56.848Z,49.88
2023-04-28T04:17:56.863Z,50.02
2023-04-28T04:18:56.947Z,49.64
2023-04-28T04:19:56.912Z,49.88
2023-04-28T04:20:56.961Z,49.77
2023-04-28T04:21:57.031Z,49.77
2023-04-28T04:22:57.057Z,49.87
2023-04-28T04:23:57.092Z,49.77
2023-04-28T04:24:57.104Z,49.84
2023-04-28T04:25:57.101Z,49.81
2023-04-28T04:26:57.144Z,49.71
2023-04-28T04:27:57.141Z,49.68
2023-04-28T04:28:57.144Z,49.67
2023-04-28T04:29:57.146Z,49.56
2023-04-28T04:30:57.202Z,49.72
2023-04-28T04:31:57.159Z,49.74
2023-04-28T04:32:57.186Z,49.73
2023-04-28T04:33:57.187Z,49.80
2023-04-28T04:34:57.179Z,49.75
2023-04-28T04:35:57.177Z,49.76
2023-04-28T04:36:57.181Z,49.59
2023-04-28T04:37:57.173Z,49.66
2023-04-28T04:38:57.194Z,49.87
2023-04-28T04:39:57.205Z,50.03
2023-04-28T04:40:57.168Z,50.04
2023-04-28T04:41:57.217Z,49.78
2023-04-28T04:42:57.229Z,49.74
2023-04-28T04:43:57.218Z,49.78
2023-04-28T04:44:57.207Z,49.63
2023-04-28T04:45:57.225Z,49.67
2023-04-28T04:46:57.253Z,49.79
2023-04-28T04:47:57.298Z,49.95
2023-04-28T04:48:57.309Z,49.80
2023-04-28T04:49:57.342Z,49.55
2023-04-28T04:50:57.381Z,49.63
2023-04-28T04:51:57.420Z,49.67
2023-04-28T04:52:57.445Z,49.57
2023-04-28T04:53:57.462Z,49.53
2023-04-28T04:54:57.476Z,49.57
2023-04-28T04:55:57.477Z,49.63
2023-04-28T04:56:57.503Z,49.68
2023-04-28T04:57:57.500Z,49.65
2023-04-28T04:58:57.480Z,49.71
2023-04-28T04:59:57.526Z,49.73
2023-04-28T05:00:57.496Z,49.85
2023-04-28T05:01:57.515Z,50.04
2023-04-28T05:02:57.576Z,50.02
2023-04-28T05:03:57.700Z,50.24
2023-04-28T05:05:08.145Z,50.24
2023-04-28T05:05:58.528Z,50.37
2023-04-28T05:06:57.519Z,50.36
2023-04-28T05:07:57.502Z,50.31
2023-04-28T05:08:57.481Z,50.26
2023-04-28T05:09:57.535Z,50.26
2023-04-28T05:10:57.484Z,50.39
2023-04-28T05:11:57.479Z,50.25
2023-04-28T05:12:57.448Z,49.93
2023-04-28T05:13:57.444Z,49.99
2023-04-28T05:14:57.450Z,50.13
2023-04-28T05:15:57.491Z,50.11
2023-04-28T05:16:57.536Z,50.04
2023-04-28T05:17:57.472Z,50.26
2023-04-28T05:18:57.414Z,50.59
2023-04-28T05:19:57.399Z,50.72
2023-04-28T05:20:57.400Z,50.90
2023-04-28T05:21:57.421Z,50.96
2023-04-28T05:22:57.452Z,51.38
2023-04-28T05:23:57.534Z,50.75
2023-04-28T05:24:57.609Z,50.36
2023-04-28T05:25:57.618Z,50.22
2023-04-28T05:26:57.758Z,49.71
2023-04-28T05:27:57.721Z,49.47
2023-04-28T05:28:57.759Z,49.28
2023-04-28T05:29:57.841Z,49.42
2023-04-28T05:30:57.886Z,49.11
2023-04-28T05:31:57.990Z,49.03
2023-04-28T05:32:58.002Z,49.04
2023-04-28T05:33:58.028Z,49.16
2023-04-28T05:34:58.067Z,49.33
2023-04-28T05:35:58.148Z,49.11
2023-04-28T05:36:58.177Z,49.02
2023-04-28T05:37:58.239Z,48.91
2023-04-28T05:38:58.328Z,49.34
2023-04-28T05:39:58.281Z,49.98
2023-04-28T05:40:58.325Z,50.02
2023-04-28T05:41:58.331Z,50.25
2023-04-28T05:42:58.335Z,51.47
2023-04-28T05:43:58.314Z,51.58
2023-04-28T05:44:58.335Z,52.04
2023-04-28T05:45:58.404Z,52.62
2023-04-28T05:46:58.445Z,52.56
2023-04-28T05:47:58.613Z,53.56
2023-04-28T05:48:58.495Z,53.96
2023-04-28T05:49:58.545Z,53.87
2023-04-28T05:50:58.601Z,54.41
2023-04-28T05:51:58.591Z,55.52
2023-04-28T05:52:58.589Z,55.43
2023-04-28T05:53:58.631Z,55.77
2023-04-28T05:54:58.603Z,56.15
2023-04-28T05:55:58.647Z,55.69
2023-04-28T05:57:00.820Z,56.83
2023-04-28T05:57:58.639Z,57.14
2023-04-28T05:58:58.665Z,56.54
2023-04-28T05:59:58.602Z,57.46
2023-04-28T06:00:58.628Z,57.51
2023-04-28T06:01:58.719Z,57.48
2023-04-28T06:02:58.759Z,57.50
2023-04-28T06:03:58.920Z,57.41
2023-04-28T06:04:58.946Z,57.41
2023-04-28T06:05:58.702Z,57.21
2023-04-28T06:06:58.772Z,57.18
2023-04-28T06:07:58.601Z,57.29
2023-04-28T06:08:59.325Z,56.94
2023-04-28T06:09:58.532Z,57.30
2023-04-28T06:10:58.544Z,57.02
2023-04-28T06:11:58.797Z,56.88
2023-04-28T06:12:58.537Z,56.53
2023-04-28T06:13:58.516Z,56.81
2023-04-28T06:14:58.497Z,56.67
2023-04-28T06:15:58.563Z,56.81
2023-04-28T06:16:58.494Z,56.36
2023-04-28T06:17:58.521Z,56.63
2023-04-28T06:18:58.478Z,56.57
2023-04-28T06:19:58.463Z,56.68
2023-04-28T06:20:58.468Z,56.42
2023-04-28T06:21:58.459Z,56.73
2023-04-28T06:22:58.474Z,56.83
2023-04-28T06:23:58.455Z,56.84
2023-04-28T06:24:58.449Z,56.89
2023-04-28T06:25:58.457Z,56.70
2023-04-28T06:26:58.418Z,56.55
2023-04-28T06:27:58.426Z,56.68
2023-04-28T06:28:58.430Z,56.36
2023-04-28T06:29:58.453Z,56.62
2023-04-28T06:30:58.486Z,56.86
2023-04-28T06:31:58.794Z,56.97
2023-04-28T06:32:58.500Z,56.55
2023-04-28T06:33:58.488Z,56.32
2023-04-28T06:34:58.808Z,56.34
2023-04-28T06:35:58.486Z,56.45
2023-04-28T06:36:58.796Z,56.39
2023-04-28T06:37:58.552Z,55.85
2023-04-28T06:38:58.493Z,55.81
2023-04-28T06:39:58.482Z,55.90
2023-04-28T06:40:58.511Z,55.94
2023-04-28T06:41:58.511Z,55.98
2023-04-28T06:42:58.487Z,56.24
2023-04-28T06:43:58.481Z,56.31
2023-04-28T06:44:58.529Z,55.93
2023-04-28T06:45:58.482Z,56.27
2023-04-28T06:46:58.514Z,56.41
2023-04-28T06:47:58.803Z,56.42
2023-04-28T06:48:58.482Z,56.32
2023-04-28T06:49:58.508Z,56.25
2023-04-28T06:50:58.546Z,56.48
2023-04-28T06:51:58.560Z,56.32
2023-04-28T06:52:58.799Z,56.23
2023-04-28T06:53:58.551Z,56.20
2023-04-28T06:54:58.569Z,56.17
2023-04-28T06:55:58.589Z,55.96
2023-04-28T06:56:58.809Z,56.20
2023-04-28T06:57:58.814Z,56.10
2023-04-28T06:58:58.674Z,55.99
2023-04-28T06:59:58.784Z,56.06
2023-04-28T07:00:58.795Z,55.66
2023-04-28T07:01:58.943Z,55.92
2023-04-28T07:02:59.102Z,55.95
2023-04-28T07:03:59.155Z,56.18
2023-04-28T07:04:58.922Z,56.25
2023-04-28T07:05:58.937Z,56.04
2023-04-28T07:06:59.043Z,56.28
2023-04-28T07:07:59.306Z,56.19
2023-04-28T07:08:59.051Z,56.06
2023-04-28T07:09:59.133Z,56.32
2023-04-28T07:10:59.222Z,56.41
2023-04-28T07:11:59.244Z,56.34
2023-04-28T07:12:59.292Z,56.54
2023-04-28T07:13:59.338Z,56.20
2023-04-28T07:14:59.600Z,56.42
2023-04-28T07:15:59.456Z,56.28
2023-04-28T07:16:59.474Z,56.22
2023-04-28T07:17:59.942Z,56.48
2023-04-28T07:18:59.542Z,56.32
2023-04-28T07:19:59.694Z,56.53
2023-04-28T07:20:59.631Z,56.67
2023-04-28T07:21:59.652Z,56.76
2023-04-28T07:22:59.691Z,56.69
2023-04-28T07:23:59.707Z,56.84
2023-04-28T07:24:59.743Z,56.80
2023-04-28T07:25:59.814Z,56.62
2023-04-28T07:26:59.890Z,56.44
2023-04-28T07:27:59.910Z,56.41
2023-04-28T07:28:59.959Z,56.33
2023-04-28T07:30:00.155Z,55.96
2023-04-28T07:31:00.027Z,55.87
2023-04-28T07:32:00.181Z,55.88
2023-04-28T07:33:00.416Z,55.79
2023-04-28T07:33:59.988Z,56.21
2023-04-28T07:34:59.977Z,56.55
2023-04-28T07:36:00.037Z,56.17
2023-04-28T07:37:00.027Z,56.45
2023-04-28T07:38:00.100Z,56.57
2023-04-28T07:39:00.123Z,56.53
2023-04-28T07:40:00.228Z,56.46
2023-04-28T07:41:00.296Z,56.54
2023-04-28T07:42:00.319Z,56.55
2023-04-28T07:43:00.280Z,56.49
2023-04-28T07:44:00.331Z,56.74
2023-04-28T07:45:00.384Z,56.72
2023-04-28T07:46:00.440Z,56.72
2023-04-28T07:47:00.476Z,56.62
2023-04-28T07:48:00.538Z,56.22
2023-04-28T07:49:00.590Z,56.31
2023-04-28T07:50:00.649Z,56.22
2023-04-28T07:51:00.678Z,56.45
2023-04-28T07:52:00.825Z,56.63
2023-04-28T07:53:00.826Z,56.42
2023-04-28T07:54:00.798Z,56.56
2023-04-28T07:55:00.848Z,56.57
2023-04-28T07:56:00.909Z,56.51
2023-04-28T07:57:00.970Z,56.93
2023-04-28T07:58:01.040Z,56.52
2023-04-28T07:59:01.065Z,56.68
2023-04-28T08:00:01.151Z,56.37
2023-04-28T08:01:01.171Z,56.03
2023-04-28T08:02:01.373Z,55.99
2023-04-28T08:03:01.343Z,55.94
2023-04-28T08:04:01.635Z,56.08
2023-04-28T08:05:01.771Z,56.39
2023-04-28T08:06:01.571Z,56.52
2023-04-28T08:07:01.917Z,56.25
2023-04-28T08:08:01.846Z,55.76
2023-04-28T08:09:01.555Z,55.62
2023-04-28T08:10:01.645Z,54.99
2023-04-28T08:11:01.655Z,55.75
2023-04-28T08:12:01.701Z,55.97
2023-04-28T08:13:01.783Z,56.18
2023-04-28T08:14:01.816Z,56.31
2023-04-28T08:15:01.936Z,55.53
2023-04-28T08:16:02.023Z,55.80
2023-04-28T08:17:02.033Z,55.97
2023-04-28T08:18:02.367Z,55.62
2023-04-28T08:19:02.135Z,55.36
2023-04-28T08:20:02.171Z,54.83
2023-04-28T08:21:02.234Z,55.18
2023-04-28T08:22:02.237Z,54.87
2023-04-28T08:23:02.314Z,54.72
2023-04-28T08:24:02.312Z,54.76
2023-04-28T08:25:02.355Z,55.18
2023-04-28T08:26:02.559Z,55.26
2023-04-28T08:27:02.426Z,55.63
2023-04-28T08:28:02.484Z,55.59
2023-04-28T08:29:02.515Z,55.51
2023-04-28T08:30:02.588Z,55.92
2023-04-28T08:31:03.374Z,55.49
2023-04-28T08:32:02.631Z,55.38
2023-04-28T08:33:02.872Z,55.23
2023-04-28T08:34:03.697Z,54.98
2023-04-28T08:35:02.721Z,55.06
2023-04-28T08:36:02.788Z,55.24
2023-04-28T08:37:02.837Z,55.43
2023-04-28T08:38:03.356Z,55.79
2023-04-28T08:39:02.886Z,55.02
2023-04-28T08:40:02.890Z,55.44
2023-04-28T08:41:03.044Z,55.62
2023-04-28T08:42:02.975Z,55.75
2023-04-28T08:43:03.017Z,55.69
2023-04-28T08:44:03.023Z,55.72
2023-04-28T08:45:03.143Z,55.67
2023-04-28T08:46:03.120Z,55.55
2023-04-28T08:47:03.153Z,55.53
2023-04-28T08:49:03.147Z,55.93
2023-04-28T08:50:03.164Z,55.92
2023-04-28T08:51:03.178Z,55.55
2023-04-28T08:52:03.244Z,55.31
2023-04-28T08:53:03.222Z,55.13
2023-04-28T08:54:29.400Z,54.85
2023-04-28T08:55:04.266Z,55.03
2023-04-28T08:56:03.249Z,55.44
2023-04-28T08:57:03.249Z,55.52
2023-04-28T08:58:03.236Z,55.51
2023-04-28T08:59:03.205Z,55.87
2023-04-28T09:00:03.224Z,55.15
2023-04-28T09:01:03.202Z,54.79
2023-04-28T09:02:03.212Z,54.70
2023-04-28T09:03:04.206Z,54.64
2023-04-28T09:04:03.782Z,54.23
2023-04-28T09:05:03.489Z,54.39
2023-04-28T09:06:03.158Z,54.94
2023-04-28T09:07:03.188Z,54.75
2023-04-28T09:08:03.500Z,53.72
2023-04-28T09:09:03.285Z,54.09
2023-04-28T09:10:03.148Z,54.38
2023-04-28T09:11:03.133Z,54.66
2023-04-28T09:12:03.124Z,55.41
2023-04-28T09:13:03.340Z,55.43
2023-04-28T09:14:03.117Z,55.45
2023-04-28T09:15:03.180Z,55.62
2023-04-28T09:16:03.151Z,55.27
2023-04-28T09:17:03.198Z,55.66
2023-04-28T09:18:03.398Z,55.55
2023-04-28T09:19:03.185Z,55.36
2023-04-28T09:20:03.196Z,55.37
2023-04-28T09:21:03.230Z,55.69
2023-04-28T09:22:13.821Z,55.84
2023-04-28T09:23:04.345Z,55.20
2023-04-28T09:24:03.209Z,55.24
2023-04-28T09:25:03.240Z,55.31
2023-04-28T09:26:03.232Z,55.92
2023-04-28T09:27:03.199Z,55.69
2023-04-28T09:28:03.874Z,55.26
2023-04-28T09:29:03.369Z,55.70
2023-04-28T09:30:03.160Z,55.47
2023-04-28T09:31:03.203Z,55.29
2023-04-28T09:32:03.279Z,54.99
2023-04-28T09:33:04.374Z,55.14
2023-04-28T09:34:03.229Z,54.75
2023-04-28T09:35:03.242Z,54.85
2023-04-28T09:36:03.184Z,54.93
2023-04-28T09:37:03.173Z,55.17
2023-04-28T09:38:03.175Z,55.35
2023-04-28T09:39:03.376Z,55.51
2023-04-28T09:40:03.094Z,55.18
2023-04-28T09:41:03.336Z,55.24
2023-04-28T09:42:03.110Z,55.58
2023-04-28T09:43:15.098Z,55.57
2023-04-28T09:44:04.093Z,55.60
2023-04-28T09:45:03.134Z,55.82
2023-04-28T09:46:03.095Z,55.90
2023-04-28T09:47:03.130Z,56.22
2023-04-28T09:48:03.494Z,55.80
2023-04-28T09:49:03.079Z,55.57
2023-04-28T09:50:03.038Z,55.88
2023-04-28T09:51:03.055Z,55.94
2023-04-28T09:52:03.057Z,56.07
2023-04-28T09:53:03.113Z,56.59
2023-04-28T09:54:04.047Z,56.07
2023-04-28T09:55:03.016Z,55.64
2023-04-28T09:56:03.036Z,56.08
2023-04-28T09:57:03.305Z,55.54
2023-04-28T09:58:03.011Z,55.20
2023-04-28T09:59:03.018Z,55.91
2023-04-28T10:00:02.978Z,56.09
2023-04-28T10:01:03.038Z,56.12
2023-04-28T10:02:12.719Z,56.49
2023-04-28T10:03:04.080Z,56.03
2023-04-28T10:04:03.048Z,55.74
2023-04-28T10:05:03.262Z,56.35
2023-04-28T10:06:03.209Z,56.41
2023-04-28T10:07:02.949Z,56.44
2023-04-28T10:08:02.943Z,56.22
2023-04-28T10:09:03.112Z,55.95
2023-04-28T10:10:02.925Z,55.66
2023-04-28T10:11:02.905Z,55.72
2023-04-28T10:12:02.908Z,55.93
2023-04-28T10:13:02.900Z,56.33
2023-04-28T10:14:02.874Z,56.66
2023-04-28T10:15:02.896Z,56.43
2023-04-28T10:16:02.922Z,56.63
2023-04-28T10:17:02.853Z,56.54
2023-04-28T10:18:02.966Z,56.23
2023-04-28T10:19:02.868Z,56.50
2023-04-28T10:20:02.830Z,56.64
2023-04-28T10:21:02.812Z,56.57
2023-04-28T10:22:02.836Z,55.95
2023-04-28T10:23:02.806Z,55.64
2023-04-28T10:24:02.898Z,55.60
2023-04-28T10:25:02.811Z,55.79
2023-04-28T10:26:02.817Z,56.08
2023-04-28T10:27:02.814Z,56.14
2023-04-28T10:28:02.763Z,55.97
2023-04-28T10:29:02.752Z,55.73
2023-04-28T10:30:03.956Z,55.63
2023-04-28T10:31:02.794Z,55.82
2023-04-28T10:32:02.800Z,55.63
2023-04-28T10:33:02.807Z,56.05
2023-04-28T10:34:02.828Z,56.35
2023-04-28T10:35:02.752Z,55.99
2023-04-28T10:36:02.751Z,56.34
2023-04-28T10:37:03.349Z,56.52
2023-04-28T10:38:02.779Z,56.43
2023-04-28T10:39:02.757Z,56.43
2023-04-28T10:40:02.778Z,56.23
2023-04-28T10:41:02.771Z,56.21
2023-04-28T10:42:02.782Z,56.10
2023-04-28T10:43:02.794Z,56.02
2023-04-28T10:44:02.816Z,55.91
2023-04-28T10:45:02.799Z,56.24
2023-04-28T10:46:02.881Z,56.40
2023-04-28T10:47:02.812Z,56.32
2023-04-28T10:48:02.822Z,56.63
2023-04-28T10:49:02.862Z,56.55
2023-04-28T10:50:02.787Z,56.00
2023-04-28T10:51:02.880Z,56.46
2023-04-28T10:52:02.816Z,56.56
2023-04-28T10:53:02.815Z,56.58
2023-04-28T10:54:02.814Z,56.67
2023-04-28T10:55:07.040Z,56.52
2023-04-28T10:56:03.819Z,55.80
2023-04-28T10:57:02.809Z,56.08
2023-04-28T10:58:02.795Z,55.94
2023-04-28T10:59:02.788Z,56.32
2023-04-28T11:00:02.770Z,55.78
2023-04-28T11:01:02.762Z,55.69
2023-04-28T11:02:02.835Z,55.67
2023-04-28T11:03:02.958Z,56.34
2023-04-28T11:04:03.165Z,57.07
2023-04-28T11:05:03.022Z,56.96
2023-04-28T11:06:02.909Z,55.19
2023-04-28T11:07:02.947Z,55.11
2023-04-28T11:08:02.992Z,55.13
2023-04-28T11:09:03.382Z,55.13
2023-04-28T11:10:02.980Z,55.45
2023-04-28T11:11:03.085Z,55.53
2023-04-28T11:12:03.112Z,56.05
2023-04-28T11:13:03.189Z,56.32
2023-04-28T11:14:03.381Z,55.95
2023-04-28T11:15:03.219Z,55.61
2023-04-28T11:16:03.280Z,56.14
2023-04-28T11:17:03.332Z,55.70
2023-04-28T11:18:03.336Z,55.04
2023-04-28T11:19:03.384Z,55.17
2023-04-28T11:20:03.380Z,55.70
2023-04-28T11:21:03.424Z,56.27
2023-04-28T11:22:03.489Z,56.48
2023-04-28T11:23:03.502Z,55.24
2023-04-28T11:24:03.893Z,55.42
2023-04-28T11:25:03.651Z,55.21
2023-04-28T11:26:03.687Z,54.56
2023-04-28T11:27:03.765Z,54.98
2023-04-28T11:28:03.799Z,55.01
2023-04-28T11:29:03.869Z,54.79
2023-04-28T11:30:03.908Z,55.15
2023-04-28T11:31:03.998Z,55.55
2023-04-28T11:32:04.217Z,55.31
2023-04-28T11:33:04.140Z,55.45
2023-04-28T11:34:04.173Z,55.87
2023-04-28T11:35:04.213Z,55.57
2023-04-28T11:36:04.262Z,55.64
2023-04-28T11:37:04.300Z,54.83
2023-04-28T11:38:04.371Z,54.77
2023-04-28T11:39:04.424Z,55.02
2023-04-28T11:40:04.574Z,55.05
2023-04-28T11:41:04.533Z,54.97
2023-04-28T11:42:04.622Z,55.08
2023-04-28T11:43:04.668Z,55.36
2023-04-28T11:44:04.722Z,55.14
2023-04-28T11:45:04.821Z,55.20
2023-04-28T11:46:04.850Z,55.48
2023-04-28T11:47:05.210Z,55.87
2023-04-28T11:48:04.988Z,56.38
2023-04-28T11:49:05.005Z,56.52
2023-04-28T11:50:05.065Z,56.39
2023-04-28T11:51:05.091Z,55.78
2023-04-28T11:52:05.158Z,55.24
2023-04-28T11:53:05.208Z,55.32
2023-04-28T11:54:05.264Z,55.48
2023-04-28T11:55:05.360Z,55.15
2023-04-28T11:56:05.372Z,55.22
2023-04-28T11:57:05.412Z,55.26
2023-04-28T11:58:05.448Z,55.58
2023-04-28T11:59:05.471Z,55.59
2023-04-28T12:00:05.528Z,55.28
2023-04-28T12:01:05.511Z,55.49
2023-04-28T12:02:05.588Z,55.49
2023-04-28T12:03:05.768Z,55.24
2023-04-28T12:04:05.728Z,55.09
2023-04-28T12:05:05.749Z,55.01
2023-04-28T12:06:05.747Z,54.82
2023-04-28T12:07:05.790Z,55.07
2023-04-28T12:08:05.793Z,55.08
2023-04-28T12:09:05.849Z,55.18
2023-04-28T12:10:05.932Z,55.48
2023-04-28T12:11:05.959Z,55.76
2023-04-28T12:12:06.032Z,55.09
2023-04-28T12:13:06.084Z,54.94
2023-04-28T12:14:06.149Z,54.84
2023-04-28T12:15:06.177Z,54.60
2023-04-28T12:16:06.258Z,55.13
2023-04-28T12:17:06.279Z,55.38
2023-04-28T12:18:06.384Z,55.61
2023-04-28T12:19:06.402Z,54.60
2023-04-28T12:20:06.462Z,54.20
2023-04-28T12:21:06.470Z,54.33
2023-04-28T12:22:06.507Z,54.57
2023-04-28T12:23:06.556Z,54.49
2023-04-28T12:24:06.653Z,54.57
2023-04-28T12:25:06.638Z,54.46
2023-04-28T12:26:06.709Z,54.32
2023-04-28T12:27:06.760Z,54.91
2023-04-28T12:28:06.777Z,54.06
2023-04-28T12:29:06.832Z,54.29
2023-04-28T12:30:06.888Z,54.14
2023-04-28T12:31:06.930Z,53.85
2023-04-28T12:32:07.878Z,53.99
2023-04-28T12:33:07.080Z,53.89
2023-04-28T12:34:06.998Z,53.68
2023-04-28T12:35:07.071Z,53.93
2023-04-28T12:36:07.073Z,52.82
2023-04-28T12:37:07.096Z,53.08
2023-04-28T12:38:07.104Z,52.79
2023-04-28T12:39:07.131Z,52.47
2023-04-28T12:40:07.143Z,52.72
2023-04-28T12:41:07.138Z,53.22
2023-04-28T12:42:07.155Z,53.42
2023-04-28T12:43:07.160Z,54.25
2023-04-28T12:44:07.215Z,53.59
2023-04-28T12:45:07.266Z,52.88
2023-04-28T12:46:07.272Z,52.99
2023-04-28T12:47:07.318Z,52.87
2023-04-28T12:48:07.307Z,53.29
2023-04-28T12:49:07.297Z,53.93
2023-04-28T12:50:07.442Z,53.99
2023-04-28T12:51:07.376Z,53.07
2023-04-28T12:52:07.420Z,53.27
2023-04-28T12:53:07.428Z,53.97
2023-04-28T12:54:07.456Z,54.41